EPPO/POZ METAR and TAF weather

Enter ICAO airport designator
Station Type Date Time Source
EPPO METAR 2020/01/27 14:00 UTC NOAA

EPPO 271400Z 20008KT CAVOK 07/03 Q1011


Station Type Date Time Source
EPPO Decoded METAR 2020/01/27 14:00 UTC NOAA

Poznan, Poland (EPPO) 52-25N 016-50E 92M
Jan 27, 2020 - 09:00 AM EST / 2020.01.27 1400 UTC
Wind: from the SSW (200 degrees) at 9 MPH (8 KT):0
Visibility: greater than 7 mile(s):0
Temperature: 44 F (7 C)
Dew Point: 37 F (3 C)
Relative Humidity: 75%
Pressure (altimeter): 29.85 in. Hg (1011 hPa)
ob: EPPO 271400Z 20008KT CAVOK 07/03 Q1011
cycle: 14

Station Type Date Time Source
EPPO TAF 2020/01/27 12:33 UTC NOAA

TAF EPPO 271130Z 2712/2812 19010KT CAVOK
BECMG 2800/2803 4000 -RA BR BKN013
TEMPO 2803/2809 2000 -RA BR BKN005

Example: see airport list